createdAt,value
2023-01-27T00:00:29.407Z,0.95
2023-01-27T00:01:29.393Z,0.96
2023-01-27T00:02:29.412Z,1.00
2023-01-27T00:03:30.386Z,1.20
2023-01-27T00:04:29.389Z,1.07
2023-01-27T00:05:29.369Z,1.13
2023-01-27T00:06:29.352Z,1.07
2023-01-27T00:07:29.346Z,1.10
2023-01-27T00:08:29.335Z,1.17
2023-01-27T00:09:29.335Z,1.29
2023-01-27T00:10:29.321Z,1.28
2023-01-27T00:11:29.331Z,1.28
2023-01-27T00:12:29.303Z,1.26
2023-01-27T00:13:29.310Z,1.14
2023-01-27T00:14:29.294Z,1.04
2023-01-27T00:15:29.279Z,1.11
2023-01-27T00:16:29.268Z,1.28
2023-01-27T00:17:29.256Z,1.07
2023-01-27T00:18:29.255Z,1.08
2023-01-27T00:19:29.252Z,1.11
2023-01-27T00:20:29.239Z,1.06
2023-01-27T00:21:29.224Z,1.04
2023-01-27T00:22:29.207Z,1.06
2023-01-27T00:23:30.211Z,1.13
2023-01-27T00:24:29.212Z,1.18
2023-01-27T00:25:29.189Z,1.11
2023-01-27T00:26:29.189Z,1.18
2023-01-27T00:27:29.184Z,1.18
2023-01-27T00:28:29.159Z,1.26
2023-01-27T00:29:29.188Z,1.14
2023-01-27T00:30:29.184Z,1.08
2023-01-27T00:31:29.170Z,1.14
2023-01-27T00:32:29.149Z,1.14
2023-01-27T00:33:29.129Z,1.10
2023-01-27T00:34:29.121Z,1.14
2023-01-27T00:35:29.106Z,1.11
2023-01-27T00:36:29.096Z,1.10
2023-01-27T00:37:29.153Z,1.10
2023-01-27T00:38:29.081Z,1.14
2023-01-27T00:39:29.087Z,1.17
2023-01-27T00:40:29.060Z,1.18
2023-01-27T00:41:29.057Z,1.06
2023-01-27T00:42:29.045Z,0.99
2023-01-27T00:43:29.031Z,1.07
2023-01-27T00:44:29.040Z,1.10
2023-01-27T00:45:29.021Z,1.07
2023-01-27T00:46:29.031Z,1.17
2023-01-27T00:47:29.004Z,1.17
2023-01-27T00:48:28.994Z,1.24
2023-01-27T00:49:29.034Z,1.25
2023-01-27T00:50:28.978Z,1.29
2023-01-27T00:51:28.969Z,1.16
2023-01-27T00:52:28.997Z,1.10
2023-01-27T00:53:28.959Z,1.06
2023-01-27T00:54:28.998Z,1.04
2023-01-27T00:55:28.928Z,0.98
2023-01-27T00:56:28.927Z,0.98
2023-01-27T00:57:28.914Z,1.10
2023-01-27T00:58:28.913Z,1.04
2023-01-27T00:59:28.982Z,1.06
2023-01-27T01:00:28.888Z,1.07
2023-01-27T01:01:28.946Z,1.10
2023-01-27T01:02:28.906Z,1.02
2023-01-27T01:03:28.860Z,0.99
2023-01-27T01:04:28.864Z,1.02
2023-01-27T01:05:28.845Z,1.07
2023-01-27T01:06:28.836Z,1.06
2023-01-27T01:07:28.823Z,1.06
2023-01-27T01:08:28.820Z,1.06
2023-01-27T01:09:28.861Z,1.04
2023-01-27T01:10:28.799Z,1.11
2023-01-27T01:11:28.797Z,1.16
2023-01-27T01:12:28.789Z,1.20
2023-01-27T01:13:28.777Z,1.14
2023-01-27T01:14:28.779Z,1.11
2023-01-27T01:15:28.760Z,1.18
2023-01-27T01:16:28.825Z,1.06
2023-01-27T01:17:28.738Z,1.08
2023-01-27T01:18:28.730Z,1.11
2023-01-27T01:19:28.785Z,1.16
2023-01-27T01:20:28.721Z,1.18
2023-01-27T01:21:28.716Z,1.16
2023-01-27T01:22:28.696Z,1.20
2023-01-27T01:23:28.691Z,1.20
2023-01-27T01:24:28.764Z,1.26
2023-01-27T01:25:28.676Z,1.29
2023-01-27T01:26:28.664Z,1.35
2023-01-27T01:27:28.654Z,1.26
2023-01-27T01:28:28.642Z,1.25
2023-01-27T01:29:28.677Z,1.28
2023-01-27T01:30:28.676Z,1.26
2023-01-27T01:31:28.774Z,1.34
2023-01-27T01:32:28.615Z,1.25
2023-01-27T01:33:28.606Z,1.21
2023-01-27T01:34:28.674Z,1.39
2023-01-27T01:35:28.583Z,1.17
2023-01-27T01:36:28.576Z,1.18
2023-01-27T01:37:28.571Z,1.32
2023-01-27T01:38:28.569Z,1.28
2023-01-27T01:39:28.559Z,1.25
2023-01-27T01:40:28.538Z,1.16
2023-01-27T01:41:29.559Z,1.26
2023-01-27T01:42:28.526Z,1.32
2023-01-27T01:43:28.523Z,1.25
2023-01-27T01:44:28.528Z,1.32
2023-01-27T01:45:28.507Z,1.31
2023-01-27T01:46:28.556Z,1.35
2023-01-27T01:47:28.473Z,1.34
2023-01-27T01:48:31.473Z,1.43
2023-01-27T01:49:28.470Z,1.39
2023-01-27T01:50:28.452Z,1.43
2023-01-27T01:51:28.447Z,1.38
2023-01-27T01:52:28.438Z,1.42
2023-01-27T01:53:28.429Z,1.39
2023-01-27T01:54:28.428Z,1.35
2023-01-27T01:55:28.406Z,1.42
2023-01-27T01:56:28.401Z,1.38
2023-01-27T01:57:28.400Z,1.34
2023-01-27T01:58:28.408Z,1.39
2023-01-27T01:59:28.385Z,1.36
2023-01-27T02:00:28.374Z,1.38
2023-01-27T02:01:28.476Z,1.43
2023-01-27T02:02:28.388Z,1.39
2023-01-27T02:03:28.349Z,1.39
2023-01-27T02:04:28.338Z,1.35
2023-01-27T02:05:28.328Z,1.29
2023-01-27T02:06:28.315Z,1.31
2023-01-27T02:07:28.317Z,1.39
2023-01-27T02:08:28.300Z,1.43
2023-01-27T02:09:28.304Z,1.32
2023-01-27T02:10:28.282Z,1.32
2023-01-27T02:11:28.266Z,1.36
2023-01-27T02:12:28.267Z,1.36
2023-01-27T02:13:28.261Z,1.36
2023-01-27T02:14:28.266Z,1.39
2023-01-27T02:15:28.241Z,1.34
2023-01-27T02:16:28.286Z,1.20
2023-01-27T02:17:28.220Z,1.32
2023-01-27T02:18:28.213Z,1.39
2023-01-27T02:19:28.200Z,1.36
2023-01-27T02:20:28.202Z,1.36
2023-01-27T02:21:28.188Z,1.29
2023-01-27T02:22:28.177Z,1.31
2023-01-27T02:23:28.182Z,1.39
2023-01-27T02:24:28.193Z,1.43
2023-01-27T02:25:28.169Z,1.35
2023-01-27T02:26:28.155Z,1.47
2023-01-27T02:27:28.140Z,1.32
2023-01-27T02:28:28.141Z,1.38
2023-01-27T02:29:28.155Z,1.34
2023-01-27T02:30:28.181Z,1.50
2023-01-27T02:31:28.192Z,1.44
2023-01-27T02:32:28.099Z,1.47
2023-01-27T02:33:28.105Z,1.52
2023-01-27T02:34:28.083Z,1.49
2023-01-27T02:35:29.090Z,1.38
2023-01-27T02:36:28.063Z,1.47
2023-01-27T02:37:28.070Z,1.52
2023-01-27T02:38:28.047Z,1.44
2023-01-27T02:39:28.041Z,1.43
2023-01-27T02:40:28.041Z,1.35
2023-01-27T02:41:28.024Z,1.38
2023-01-27T02:42:28.017Z,1.32
2023-01-27T02:43:28.009Z,1.36
2023-01-27T02:44:28.009Z,1.36
2023-01-27T02:45:28.007Z,1.29
2023-01-27T02:46:28.039Z,1.28
2023-01-27T02:47:27.994Z,1.36
2023-01-27T02:48:27.963Z,1.32
2023-01-27T02:49:27.982Z,1.29
2023-01-27T02:50:27.956Z,1.44
2023-01-27T02:51:27.945Z,1.39
2023-01-27T02:52:27.941Z,1.42
2023-01-27T02:53:27.921Z,1.47
2023-01-27T02:54:27.912Z,1.44
2023-01-27T02:55:27.925Z,1.47
2023-01-27T02:56:27.894Z,1.43
2023-01-27T02:57:27.884Z,1.47
2023-01-27T02:58:27.873Z,1.50
2023-01-27T02:59:27.951Z,1.52
2023-01-27T03:00:27.882Z,1.60
2023-01-27T03:01:27.949Z,1.56
2023-01-27T03:02:27.874Z,1.54
2023-01-27T03:03:27.836Z,1.53
2023-01-27T03:04:27.827Z,1.50
2023-01-27T03:05:27.825Z,1.49
2023-01-27T03:06:27.805Z,1.56
2023-01-27T03:07:27.791Z,1.50
2023-01-27T03:08:28.800Z,1.38
2023-01-27T03:09:27.823Z,1.36
2023-01-27T03:10:27.782Z,1.39
2023-01-27T03:11:27.761Z,1.43
2023-01-27T03:12:27.760Z,1.39
2023-01-27T03:13:27.756Z,1.28
2023-01-27T03:14:27.746Z,1.43
2023-01-27T03:15:27.825Z,1.36
2023-01-27T03:16:27.719Z,1.47
2023-01-27T03:17:27.712Z,1.39
2023-01-27T03:18:27.701Z,1.49
2023-01-27T03:19:27.771Z,1.44
2023-01-27T03:20:27.694Z,1.49
2023-01-27T03:21:27.672Z,1.46
2023-01-27T03:22:27.655Z,1.53
2023-01-27T03:23:27.649Z,1.34
2023-01-27T03:24:27.663Z,1.42
2023-01-27T03:25:27.656Z,1.36
2023-01-27T03:26:27.634Z,1.38
2023-01-27T03:27:27.614Z,1.39
2023-01-27T03:28:27.602Z,1.36
2023-01-27T03:29:27.646Z,1.36
2023-01-27T03:30:27.603Z,1.39
2023-01-27T03:31:27.694Z,1.44
2023-01-27T03:32:27.574Z,1.44
2023-01-27T03:33:27.561Z,1.43
2023-01-27T03:34:27.555Z,1.26
2023-01-27T03:35:27.585Z,1.28
2023-01-27T03:36:27.536Z,1.28
2023-01-27T03:37:27.531Z,1.34
2023-01-27T03:38:27.521Z,1.26
2023-01-27T03:39:27.511Z,1.39
2023-01-27T03:40:27.509Z,1.38
2023-01-27T03:41:28.485Z,1.38
2023-01-27T03:42:27.489Z,1.44
2023-01-27T03:43:27.474Z,1.47
2023-01-27T03:44:27.476Z,1.52
2023-01-27T03:45:27.469Z,1.35
2023-01-27T03:46:27.476Z,1.29
2023-01-27T03:47:27.460Z,1.26
2023-01-27T03:48:27.426Z,1.38
2023-01-27T03:49:27.418Z,1.43
2023-01-27T03:50:27.425Z,1.42
2023-01-27T03:51:27.407Z,1.43
2023-01-27T03:52:27.399Z,1.46
2023-01-27T03:53:27.379Z,1.57
2023-01-27T03:54:27.376Z,1.54
2023-01-27T03:55:27.377Z,1.54
2023-01-27T03:56:27.362Z,1.52
2023-01-27T03:57:27.354Z,1.56
2023-01-27T03:58:27.346Z,1.44
2023-01-27T03:59:27.331Z,1.50
2023-01-27T04:00:27.337Z,1.64
2023-01-27T04:01:27.383Z,1.57
2023-01-27T04:02:27.334Z,1.63
2023-01-27T04:03:27.306Z,1.65
2023-01-27T04:04:27.298Z,1.63
2023-01-27T04:05:27.296Z,1.53
2023-01-27T04:06:27.297Z,1.53
2023-01-27T04:07:27.259Z,1.56
2023-01-27T04:08:27.247Z,1.53
2023-01-27T04:09:27.251Z,1.44
2023-01-27T04:10:27.250Z,1.35
2023-01-27T04:11:27.227Z,1.39
2023-01-27T04:12:27.214Z,1.43
2023-01-27T04:13:27.207Z,1.46
2023-01-27T04:14:27.200Z,1.43
2023-01-27T04:15:27.212Z,1.57
2023-01-27T04:16:27.185Z,1.39
2023-01-27T04:17:27.183Z,1.38
2023-01-27T04:18:27.181Z,1.42
2023-01-27T04:19:27.161Z,1.36
2023-01-27T04:20:27.161Z,1.35
2023-01-27T04:21:27.191Z,1.31
2023-01-27T04:22:27.133Z,1.28
2023-01-27T04:23:27.121Z,1.35
2023-01-27T04:24:27.190Z,1.44
2023-01-27T04:25:27.148Z,1.35
2023-01-27T04:26:27.097Z,1.31
2023-01-27T04:27:27.102Z,1.36
2023-01-27T04:28:43.306Z,1.34
2023-01-27T04:29:29.073Z,1.35
2023-01-27T04:30:27.090Z,1.36
2023-01-27T04:31:27.072Z,1.36
2023-01-27T04:32:27.046Z,1.46
2023-01-27T04:33:27.034Z,1.39
2023-01-27T04:34:27.062Z,1.36
2023-01-27T04:35:37.452Z,1.38
2023-01-27T04:36:29.019Z,1.46
2023-01-27T04:37:27.004Z,1.44
2023-01-27T04:38:26.992Z,1.36
2023-01-27T04:39:26.997Z,1.36
2023-01-27T04:40:26.988Z,1.36
2023-01-27T04:41:26.966Z,1.32
2023-01-27T04:42:26.970Z,1.25
2023-01-27T04:43:26.952Z,1.34
2023-01-27T04:44:26.939Z,1.34
2023-01-27T04:45:58.885Z,1.29
2023-01-27T04:46:26.925Z,1.24
2023-01-27T04:47:26.915Z,1.28
2023-01-27T04:48:26.938Z,1.32
2023-01-27T04:49:27.221Z,1.28
2023-01-27T04:50:26.904Z,1.26
2023-01-27T04:51:26.886Z,1.31
2023-01-27T04:52:26.872Z,1.18
2023-01-27T04:53:26.868Z,1.21
2023-01-27T04:54:26.868Z,1.29
2023-01-27T04:55:26.860Z,1.34
2023-01-27T04:56:26.849Z,1.28
2023-01-27T04:57:26.831Z,1.28
2023-01-27T04:58:26.822Z,1.35
2023-01-27T04:59:26.808Z,1.35
2023-01-27T05:00:26.814Z,1.50
2023-01-27T05:01:26.866Z,1.53
2023-01-27T05:02:26.796Z,1.47
2023-01-27T05:03:26.781Z,1.54
2023-01-27T05:04:26.799Z,1.56
2023-01-27T05:05:26.773Z,1.46
2023-01-27T05:06:26.751Z,1.54
2023-01-27T05:07:26.745Z,1.47
2023-01-27T05:08:26.736Z,1.39
2023-01-27T05:09:26.739Z,1.42
2023-01-27T05:10:26.741Z,1.38
2023-01-27T05:11:26.710Z,1.43
2023-01-27T05:12:26.699Z,1.38
2023-01-27T05:13:26.696Z,1.38
2023-01-27T05:14:26.685Z,1.38
2023-01-27T05:15:26.737Z,1.49
2023-01-27T05:16:26.682Z,1.43
2023-01-27T05:17:26.686Z,1.47
2023-01-27T05:18:26.654Z,1.50
2023-01-27T05:19:26.690Z,1.47
2023-01-27T05:20:26.654Z,1.46
2023-01-27T05:21:26.624Z,1.56
2023-01-27T05:22:26.616Z,1.52
2023-01-27T05:23:26.611Z,1.57
2023-01-27T05:24:26.631Z,1.54
2023-01-27T05:25:26.630Z,1.57
2023-01-27T05:26:26.601Z,1.64
2023-01-27T05:27:26.580Z,1.60
2023-01-27T05:28:28.298Z,1.67
2023-01-27T05:29:26.574Z,1.68
2023-01-27T05:30:26.558Z,1.63
2023-01-27T05:31:26.743Z,1.52
2023-01-27T05:32:26.537Z,1.54
2023-01-27T05:33:26.531Z,1.53
2023-01-27T05:34:26.523Z,1.60
2023-01-27T05:35:26.510Z,1.63
2023-01-27T05:36:26.516Z,1.70
2023-01-27T05:37:26.513Z,1.70
2023-01-27T05:38:26.487Z,1.71
2023-01-27T05:39:26.479Z,1.74
2023-01-27T05:40:26.474Z,1.77
2023-01-27T05:41:26.480Z,1.74
2023-01-27T05:42:26.455Z,1.70
2023-01-27T05:43:26.451Z,1.63
2023-01-27T05:44:26.447Z,1.63
2023-01-27T05:45:26.439Z,1.60
2023-01-27T05:46:26.484Z,1.53
2023-01-27T05:47:26.414Z,1.57
2023-01-27T05:48:26.408Z,1.44
2023-01-27T05:49:26.395Z,1.56
2023-01-27T05:50:27.391Z,1.57
2023-01-27T05:51:26.381Z,1.57
2023-01-27T05:52:26.369Z,1.60
2023-01-27T05:53:26.395Z,1.56
2023-01-27T05:54:26.361Z,1.60
2023-01-27T05:55:26.354Z,1.60
2023-01-27T05:56:26.395Z,1.50
2023-01-27T05:57:26.327Z,1.54
2023-01-27T05:58:26.326Z,1.57
2023-01-27T05:59:26.318Z,1.54
2023-01-27T06:00:26.310Z,1.54
2023-01-27T06:01:26.306Z,1.60
2023-01-27T06:02:26.288Z,1.74
2023-01-27T06:03:26.280Z,1.77
2023-01-27T06:04:26.270Z,1.64
2023-01-27T06:05:26.262Z,1.64
2023-01-27T06:06:26.264Z,1.60
2023-01-27T06:07:26.242Z,1.63
2023-01-27T06:08:26.232Z,1.75
2023-01-27T06:09:26.231Z,1.67
2023-01-27T06:10:26.221Z,1.72
2023-01-27T06:11:26.218Z,1.60
2023-01-27T06:12:26.207Z,1.70
2023-01-27T06:13:26.210Z,1.65
2023-01-27T06:14:26.186Z,1.60
2023-01-27T06:15:26.183Z,1.46
2023-01-27T06:16:26.231Z,1.56
2023-01-27T06:17:26.178Z,1.63
2023-01-27T06:18:26.174Z,1.47
2023-01-27T06:19:26.153Z,1.52
2023-01-27T06:20:26.147Z,1.50
2023-01-27T06:21:26.136Z,1.49
2023-01-27T06:22:26.123Z,1.56
2023-01-27T06:23:26.112Z,1.47
2023-01-27T06:24:26.170Z,1.57
2023-01-27T06:25:26.102Z,1.47
2023-01-27T06:26:26.095Z,1.42
2023-01-27T06:27:26.082Z,1.50
2023-01-27T06:28:29.510Z,1.53
2023-01-27T06:29:27.066Z,1.50
2023-01-27T06:30:26.048Z,1.52
2023-01-27T06:31:26.225Z,1.54
2023-01-27T06:32:26.039Z,1.68
2023-01-27T06:33:26.049Z,1.64
2023-01-27T06:34:26.027Z,1.60
2023-01-27T06:35:26.009Z,1.64
2023-01-27T06:36:26.017Z,1.57
2023-01-27T06:37:25.987Z,1.57
2023-01-27T06:38:25.982Z,1.49
2023-01-27T06:39:25.975Z,1.52
2023-01-27T06:40:25.968Z,1.47
2023-01-27T06:41:26.063Z,1.52
2023-01-27T06:42:25.947Z,1.38
2023-01-27T06:43:25.933Z,1.50
2023-01-27T06:44:25.939Z,1.47
2023-01-27T06:45:25.921Z,1.54
2023-01-27T06:46:25.990Z,1.54
2023-01-27T06:47:25.904Z,1.54
2023-01-27T06:48:25.894Z,1.71
2023-01-27T06:49:25.889Z,1.70
2023-01-27T06:50:25.875Z,1.67
2023-01-27T06:51:25.888Z,1.72
2023-01-27T06:52:25.857Z,1.52
2023-01-27T06:53:25.852Z,1.60
2023-01-27T06:54:25.841Z,1.61
2023-01-27T06:55:25.839Z,1.60
2023-01-27T06:56:25.835Z,1.60
2023-01-27T06:57:25.812Z,1.50
2023-01-27T06:58:25.812Z,1.53
2023-01-27T06:59:25.797Z,1.57
2023-01-27T07:00:25.803Z,1.57
2023-01-27T07:01:25.832Z,1.60
2023-01-27T07:02:25.803Z,1.61
2023-01-27T07:03:25.770Z,1.63
2023-01-27T07:04:25.759Z,1.52
2023-01-27T07:05:25.748Z,1.50
2023-01-27T07:06:25.752Z,1.54
2023-01-27T07:07:25.728Z,1.52
2023-01-27T07:08:25.728Z,1.52
2023-01-27T07:09:25.717Z,1.60
2023-01-27T07:10:25.713Z,1.61
2023-01-27T07:11:25.718Z,1.70
2023-01-27T07:12:25.690Z,1.65
2023-01-27T07:13:25.686Z,1.67
2023-01-27T07:14:25.674Z,1.49
2023-01-27T07:15:25.665Z,1.60
2023-01-27T07:16:25.739Z,1.63
2023-01-27T07:17:25.650Z,1.49
2023-01-27T07:18:25.646Z,1.64
2023-01-27T07:19:25.635Z,1.71
2023-01-27T07:20:25.624Z,1.67
2023-01-27T07:21:25.629Z,1.67
2023-01-27T07:22:25.609Z,1.67
2023-01-27T07:23:25.593Z,1.68
2023-01-27T07:24:25.603Z,1.67
2023-01-27T07:25:25.595Z,1.68
2023-01-27T07:26:25.577Z,1.74
2023-01-27T07:27:25.569Z,1.63
2023-01-27T07:28:25.551Z,1.64
2023-01-27T07:29:25.546Z,1.57
2023-01-27T07:30:25.541Z,1.70
2023-01-27T07:31:25.648Z,1.77
2023-01-27T07:32:27.339Z,1.74
2023-01-27T07:33:26.520Z,1.72
2023-01-27T07:34:25.503Z,1.74
2023-01-27T07:35:25.506Z,1.74
2023-01-27T07:36:25.508Z,1.74
2023-01-27T07:37:25.476Z,1.67
2023-01-27T07:38:25.467Z,1.67
2023-01-27T07:39:25.459Z,1.64
2023-01-27T07:40:25.452Z,1.68
2023-01-27T07:41:25.483Z,1.60
2023-01-27T07:42:25.437Z,1.67
2023-01-27T07:43:25.428Z,1.75
2023-01-27T07:44:25.419Z,1.71
2023-01-27T07:45:25.447Z,1.77
2023-01-27T07:46:25.412Z,1.70
2023-01-27T07:47:25.391Z,1.71
2023-01-27T07:48:25.383Z,1.70
2023-01-27T07:49:27.387Z,1.75
2023-01-27T07:50:26.365Z,1.74
2023-01-27T07:51:25.391Z,1.81
2023-01-27T07:52:25.349Z,1.71
2023-01-27T07:53:25.336Z,1.63
2023-01-27T07:54:25.364Z,1.72
2023-01-27T07:55:25.311Z,1.71
2023-01-27T07:56:26.325Z,1.65
2023-01-27T07:57:25.316Z,1.74
2023-01-27T07:58:25.306Z,1.70
2023-01-27T07:59:25.288Z,1.74
2023-01-27T08:00:25.280Z,1.65
2023-01-27T08:01:25.274Z,1.72
2023-01-27T08:02:25.259Z,1.65
2023-01-27T08:03:25.306Z,1.67
2023-01-27T08:04:25.252Z,1.74
2023-01-27T08:05:25.267Z,1.75
2023-01-27T08:06:25.250Z,1.75
2023-01-27T08:07:25.216Z,1.82
2023-01-27T08:08:25.241Z,1.70
2023-01-27T08:09:25.205Z,1.70
2023-01-27T08:10:25.198Z,1.75
2023-01-27T08:11:25.192Z,1.68
2023-01-27T08:12:25.177Z,1.79
2023-01-27T08:13:25.224Z,1.75
2023-01-27T08:14:25.158Z,1.75
2023-01-27T08:15:25.161Z,1.82
2023-01-27T08:16:25.214Z,1.67
2023-01-27T08:17:25.133Z,1.88
2023-01-27T08:18:25.126Z,1.82
2023-01-27T08:19:25.120Z,1.85
2023-01-27T08:20:25.105Z,1.83
2023-01-27T08:21:25.131Z,1.79
2023-01-27T08:22:25.092Z,1.70
2023-01-27T08:23:25.083Z,1.88
2023-01-27T08:24:25.105Z,1.86
2023-01-27T08:25:25.071Z,1.88
2023-01-27T08:26:25.053Z,1.89
2023-01-27T08:27:25.055Z,1.85
2023-01-27T08:28:25.040Z,1.90
2023-01-27T08:29:25.046Z,1.88
2023-01-27T08:30:25.099Z,1.98
2023-01-27T08:31:25.062Z,1.93
2023-01-27T08:32:25.017Z,1.89
2023-01-27T08:33:25.000Z,1.85
2023-01-27T08:34:24.999Z,1.89
2023-01-27T08:35:24.988Z,1.89
2023-01-27T08:36:24.981Z,1.98
2023-01-27T08:37:24.981Z,1.93
2023-01-27T08:38:24.959Z,1.95
2023-01-27T08:39:24.948Z,1.86
2023-01-27T08:40:24.953Z,2.01
2023-01-27T08:41:24.937Z,2.00
2023-01-27T08:42:24.938Z,2.00
2023-01-27T08:43:24.918Z,1.88
2023-01-27T08:44:24.913Z,1.89
2023-01-27T08:45:24.901Z,2.01
2023-01-27T08:46:24.889Z,2.04
2023-01-27T08:47:24.890Z,2.01
2023-01-27T08:48:24.876Z,2.07
2023-01-27T08:49:24.875Z,2.07
2023-01-27T08:50:24.977Z,2.19
2023-01-27T08:51:24.852Z,2.12
2023-01-27T08:52:24.849Z,2.26
2023-01-27T08:53:24.828Z,2.20
2023-01-27T08:54:24.821Z,2.12
2023-01-27T08:55:24.810Z,2.25
2023-01-27T08:56:24.802Z,2.41
2023-01-27T08:57:24.852Z,2.27
2023-01-27T08:58:24.788Z,2.38
2023-01-27T08:59:24.811Z,2.27
2023-01-27T09:00:24.849Z,2.40
2023-01-27T09:01:24.774Z,2.33
2023-01-27T09:02:24.763Z,2.37
2023-01-27T09:03:24.744Z,2.33
2023-01-27T09:04:24.768Z,2.32
2023-01-27T09:05:24.728Z,2.27
2023-01-27T09:06:24.720Z,2.18
2023-01-27T09:07:24.724Z,2.22
2023-01-27T09:08:24.703Z,2.33
2023-01-27T09:09:24.685Z,2.36
2023-01-27T09:10:25.097Z,2.41
2023-01-27T09:11:24.669Z,2.18
2023-01-27T09:12:24.677Z,2.27
2023-01-27T09:13:24.659Z,2.22
2023-01-27T09:14:24.653Z,2.44
2023-01-27T09:15:24.643Z,2.40
2023-01-27T09:16:24.692Z,2.27
2023-01-27T09:17:24.649Z,2.33
2023-01-27T09:18:24.613Z,2.40
2023-01-27T09:19:24.605Z,2.29
2023-01-27T09:20:24.599Z,2.37
2023-01-27T09:21:24.600Z,2.33
2023-01-27T09:22:24.597Z,2.29
2023-01-27T09:23:24.575Z,2.30
2023-01-27T09:24:24.630Z,2.27
2023-01-27T09:25:24.551Z,2.40
2023-01-27T09:26:24.547Z,2.44
2023-01-27T09:27:38.201Z,2.40
2023-01-27T09:28:26.544Z,2.40
2023-01-27T09:29:24.527Z,2.41
2023-01-27T09:30:24.510Z,2.48
2023-01-27T09:31:24.617Z,2.43
2023-01-27T09:32:24.503Z,2.40
2023-01-27T09:33:24.498Z,2.41
2023-01-27T09:34:24.470Z,2.40
2023-01-27T09:35:25.466Z,2.41
2023-01-27T09:36:24.457Z,2.43
2023-01-27T09:37:25.889Z,2.38
2023-01-27T09:38:24.440Z,2.41
2023-01-27T09:39:24.461Z,2.48
2023-01-27T09:40:24.429Z,2.40
2023-01-27T09:41:24.409Z,2.43
2023-01-27T09:42:24.416Z,2.55
2023-01-27T09:43:24.390Z,2.61
2023-01-27T09:44:24.385Z,2.58
2023-01-27T09:45:24.398Z,2.51
2023-01-27T09:46:24.434Z,2.61
2023-01-27T09:47:24.377Z,2.63
2023-01-27T09:48:24.356Z,2.68
2023-01-27T09:49:24.343Z,2.73
2023-01-27T09:50:24.341Z,2.74
2023-01-27T09:51:24.330Z,2.87
2023-01-27T09:52:24.333Z,2.83
2023-01-27T09:53:24.311Z,2.92
2023-01-27T09:54:24.302Z,2.80
2023-01-27T09:55:24.302Z,2.71
2023-01-27T09:56:24.284Z,2.65
2023-01-27T09:57:24.293Z,2.66
2023-01-27T09:58:24.820Z,2.66
2023-01-27T09:59:25.263Z,2.73
2023-01-27T10:00:24.256Z,2.61
2023-01-27T10:01:24.257Z,2.66
2023-01-27T10:02:25.256Z,2.81
2023-01-27T10:03:24.234Z,2.79
2023-01-27T10:04:24.293Z,2.76
2023-01-27T10:05:24.215Z,2.66
2023-01-27T10:06:24.205Z,2.69
2023-01-27T10:07:24.210Z,2.66
2023-01-27T10:08:24.193Z,2.74
2023-01-27T10:09:24.194Z,2.89
2023-01-27T10:10:24.196Z,2.79
2023-01-27T10:11:24.164Z,2.87
2023-01-27T10:12:24.171Z,2.87
2023-01-27T10:13:24.145Z,2.76
2023-01-27T10:14:24.135Z,2.81
2023-01-27T10:15:24.126Z,2.89
2023-01-27T10:16:24.166Z,2.79
2023-01-27T10:17:24.147Z,2.89
2023-01-27T10:18:24.110Z,2.83
2023-01-27T10:19:24.093Z,2.83
2023-01-27T10:20:24.092Z,2.81
2023-01-27T10:21:24.092Z,2.87
2023-01-27T10:22:24.085Z,2.79
2023-01-27T10:23:24.060Z,2.83
2023-01-27T10:24:24.112Z,2.80
2023-01-27T10:25:24.080Z,2.83
2023-01-27T10:26:24.040Z,2.87
2023-01-27T10:27:24.043Z,2.76
2023-01-27T10:28:24.023Z,2.81
2023-01-27T10:29:24.028Z,2.65
2023-01-27T10:30:24.034Z,2.62
2023-01-27T10:31:24.035Z,2.65
2023-01-27T10:32:23.994Z,2.58
2023-01-27T10:33:23.981Z,2.53
2023-01-27T10:34:23.976Z,2.62
2023-01-27T10:35:23.957Z,2.63
2023-01-27T10:36:23.945Z,2.66
2023-01-27T10:37:23.949Z,2.63
2023-01-27T10:38:23.929Z,2.69
2023-01-27T10:39:23.921Z,2.65
2023-01-27T10:40:23.914Z,2.73
2023-01-27T10:41:23.902Z,2.65
2023-01-27T10:42:23.912Z,2.73
2023-01-27T10:43:23.898Z,2.73
2023-01-27T10:44:23.875Z,2.63
2023-01-27T10:45:55.820Z,2.56
2023-01-27T10:46:23.908Z,2.58
2023-01-27T10:47:23.855Z,2.63
2023-01-27T10:48:23.841Z,2.63
2023-01-27T10:49:23.825Z,2.68
2023-01-27T10:50:23.831Z,2.63
2023-01-27T10:51:23.814Z,2.66
2023-01-27T10:52:23.815Z,2.62
2023-01-27T10:53:23.793Z,2.65
2023-01-27T10:54:23.787Z,2.59
2023-01-27T10:55:23.778Z,2.61
2023-01-27T10:56:23.768Z,2.59
2023-01-27T10:57:23.774Z,2.53
2023-01-27T10:58:23.756Z,2.65
2023-01-27T10:59:23.742Z,2.71
2023-01-27T11:01:26.230Z,2.71
2023-01-27T11:02:23.733Z,2.79
2023-01-27T11:03:23.710Z,2.76
2023-01-27T11:04:23.751Z,2.74
2023-01-27T11:05:23.690Z,2.58
2023-01-27T11:06:23.699Z,2.62
2023-01-27T11:07:23.699Z,2.66
2023-01-27T11:08:23.708Z,2.74
2023-01-27T11:09:24.043Z,2.74
2023-01-27T11:10:24.652Z,2.77
2023-01-27T11:11:23.635Z,2.77
2023-01-27T11:12:23.649Z,2.80
2023-01-27T11:13:23.619Z,2.66
2023-01-27T11:14:23.666Z,2.84
2023-01-27T11:15:23.606Z,2.76
2023-01-27T11:16:23.630Z,2.71
2023-01-27T11:17:23.604Z,2.73
2023-01-27T11:18:23.580Z,2.80
2023-01-27T11:19:23.577Z,2.79
2023-01-27T11:20:23.569Z,2.80
2023-01-27T11:21:23.555Z,2.77
2023-01-27T11:22:23.681Z,2.83
2023-01-27T11:23:23.539Z,2.89
2023-01-27T11:24:23.606Z,2.87
2023-01-27T11:25:23.522Z,2.87
2023-01-27T11:26:23.942Z,2.92
2023-01-27T11:27:24.517Z,2.92
2023-01-27T11:28:23.496Z,2.94
2023-01-27T11:29:23.485Z,2.95
2023-01-27T11:30:23.531Z,2.92
2023-01-27T11:31:23.560Z,2.95
2023-01-27T11:32:23.484Z,2.94
2023-01-27T11:33:23.474Z,2.98
2023-01-27T11:34:23.450Z,2.95
2023-01-27T11:35:23.431Z,3.01
2023-01-27T11:36:23.423Z,3.07
2023-01-27T11:37:23.420Z,3.05
2023-01-27T11:38:23.420Z,3.02
2023-01-27T11:39:23.404Z,3.10
2023-01-27T11:40:23.394Z,3.05
2023-01-27T11:41:23.382Z,3.10
2023-01-27T11:42:23.377Z,3.08
2023-01-27T11:43:23.377Z,3.10
2023-01-27T11:44:23.353Z,2.99
2023-01-27T11:45:23.348Z,2.99
2023-01-27T11:46:23.336Z,3.05
2023-01-27T11:47:23.340Z,2.99
2023-01-27T11:48:23.697Z,3.12
2023-01-27T11:49:24.316Z,2.99
2023-01-27T11:50:23.302Z,3.13
2023-01-27T11:51:23.296Z,3.15
2023-01-27T11:52:23.327Z,3.15
2023-01-27T11:53:23.291Z,3.12
2023-01-27T11:54:23.273Z,3.16
2023-01-27T11:55:23.286Z,3.13
2023-01-27T11:56:23.261Z,3.05
2023-01-27T11:57:23.247Z,2.90
2023-01-27T11:58:23.252Z,2.97
2023-01-27T11:59:23.227Z,3.01
2023-01-27T12:00:23.224Z,3.07
2023-01-27T12:01:23.222Z,3.15
2023-01-27T12:02:23.203Z,3.13
2023-01-27T12:03:23.215Z,3.15
2023-01-27T12:04:23.242Z,3.26
2023-01-27T12:05:23.178Z,3.20
2023-01-27T12:06:23.183Z,3.30
2023-01-27T12:07:23.167Z,3.30
2023-01-27T12:08:23.170Z,3.28
2023-01-27T12:09:23.139Z,3.26
2023-01-27T12:10:23.135Z,3.17
2023-01-27T12:11:23.123Z,3.13
2023-01-27T12:12:23.131Z,3.07
2023-01-27T12:13:23.125Z,3.07
2023-01-27T12:14:23.103Z,3.12
2023-01-27T12:15:23.094Z,3.22
2023-01-27T12:16:23.153Z,3.12
2023-01-27T12:17:23.079Z,3.08
2023-01-27T12:18:23.077Z,3.15
2023-01-27T12:19:23.060Z,3.10
2023-01-27T12:20:23.051Z,3.22
2023-01-27T12:21:23.039Z,3.23
2023-01-27T12:22:23.032Z,3.26
2023-01-27T12:23:23.046Z,3.30
2023-01-27T12:24:23.057Z,3.19
2023-01-27T12:25:23.010Z,3.28
2023-01-27T12:26:22.999Z,3.15
2023-01-27T12:27:22.995Z,3.20
2023-01-27T12:28:23.000Z,3.15
2023-01-27T12:29:22.987Z,3.12
2023-01-27T12:30:22.983Z,3.25
2023-01-27T12:31:23.066Z,3.31
2023-01-27T12:32:22.952Z,3.30
2023-01-27T12:33:22.946Z,3.30
2023-01-27T12:34:22.936Z,3.31
2023-01-27T12:35:22.924Z,3.30
2023-01-27T12:36:22.914Z,3.22
2023-01-27T12:37:23.051Z,3.19
2023-01-27T12:38:22.917Z,3.16
2023-01-27T12:39:22.888Z,3.20
2023-01-27T12:40:22.882Z,3.23
2023-01-27T12:41:22.878Z,3.26
2023-01-27T12:42:22.862Z,3.28
2023-01-27T12:43:22.864Z,3.23
2023-01-27T12:44:22.848Z,3.28
2023-01-27T12:45:22.840Z,3.19
2023-01-27T12:46:22.898Z,3.26
2023-01-27T12:47:22.823Z,3.20
2023-01-27T12:48:22.828Z,3.16
2023-01-27T12:49:22.810Z,3.19
2023-01-27T12:50:22.801Z,3.10
2023-01-27T12:51:22.792Z,3.07
2023-01-27T12:52:22.785Z,2.86
2023-01-27T12:53:22.789Z,2.90
2023-01-27T12:54:22.772Z,2.87
2023-01-27T12:55:22.755Z,2.90
2023-01-27T12:56:22.740Z,2.87
2023-01-27T12:57:22.737Z,2.98
2023-01-27T12:58:22.740Z,2.97
2023-01-27T12:59:22.726Z,2.92
2023-01-27T13:00:22.715Z,2.99
2023-01-27T13:01:22.702Z,2.95
2023-01-27T13:02:22.773Z,3.05
2023-01-27T13:03:22.743Z,2.92
2023-01-27T13:04:22.684Z,3.02
2023-01-27T13:05:22.670Z,3.08
2023-01-27T13:06:22.660Z,3.05
2023-01-27T13:07:22.653Z,3.05
2023-01-27T13:08:22.699Z,3.08
2023-01-27T13:09:22.657Z,2.76
2023-01-27T13:10:22.628Z,2.76
2023-01-27T13:11:22.620Z,2.81
2023-01-27T13:12:22.616Z,2.90
2023-01-27T13:13:22.613Z,2.90
2023-01-27T13:14:22.598Z,2.99
2023-01-27T13:15:22.579Z,2.98
2023-01-27T13:16:22.587Z,3.08
2023-01-27T13:17:22.563Z,2.94
2023-01-27T13:18:22.567Z,2.98
2023-01-27T13:19:22.545Z,2.87